sensor_id;sensor_type;location;lat;lon;timestamp;pressure;altitude;pressure_sealevel;temperature;humidity
67430;BME280;54298;52.076;5.264;2023-03-01T00:01:11;103145.0;;;-1.35;75.7
67430;BME280;54298;52.076;5.264;2023-03-01T00:04:26;103145.0;;;-1.42;75.91
67430;BME280;54298;52.076;5.264;2023-03-01T00:06:04;103143.0;;;-1.39;75.95
67430;BME280;54298;52.076;5.264;2023-03-01T00:07:40;103146.0;;;-1.42;75.98
67430;BME280;54298;52.076;5.264;2023-03-01T00:11:03;103149.0;;;-1.4;75.97
67430;BME280;54298;52.076;5.264;2023-03-01T00:12:39;103152.0;;;-1.3;75.7
67430;BME280;54298;52.076;5.264;2023-03-01T00:14:16;103151.0;;;-1.34;75.62
67430;BME280;54298;52.076;5.264;2023-03-01T00:15:52;103153.0;;;-1.34;75.84
67430;BME280;54298;52.076;5.264;2023-03-01T00:19:04;103151.0;;;-1.36;75.98
67430;BME280;54298;52.076;5.264;2023-03-01T00:20:41;103144.0;;;-1.23;75.52
67430;BME280;54298;52.076;5.264;2023-03-01T00:22:17;103147.0;;;-1.29;75.41
67430;BME280;54298;52.076;5.264;2023-03-01T00:25:30;103148.0;;;-1.22;75.19
67430;BME280;54298;52.076;5.264;2023-03-01T00:27:07;103145.0;;;-1.45;75.8
67430;BME280;54298;52.076;5.264;2023-03-01T00:28:43;103143.0;;;-1.53;76.44
67430;BME280;54298;52.076;5.264;2023-03-01T00:30:20;103140.00000000001;;;-1.55;76.58
67430;BME280;54298;52.076;5.264;2023-03-01T00:33:33;103139.00000000001;;;-1.51;76.52
67430;BME280;54298;52.076;5.264;2023-03-01T00:35:09;103139.00000000001;;;-1.55;76.75
67430;BME280;54298;52.076;5.264;2023-03-01T00:36:46;103130.0;;;-1.41;76.33
67430;BME280;54298;52.076;5.264;2023-03-01T00:39:58;103133.99999999999;;;-1.5;76.44
67430;BME280;54298;52.076;5.264;2023-03-01T00:41:34;103129.0;;;-1.57;76.98
67430;BME280;54298;52.076;5.264;2023-03-01T00:43:10;103128.0;;;-1.67;77.53
67430;BME280;54298;52.076;5.264;2023-03-01T00:46:24;103131.0;;;-1.67;77.58
67430;BME280;54298;52.076;5.264;2023-03-01T00:48:02;103131.0;;;-1.56;77.27
67430;BME280;54298;52.076;5.264;2023-03-01T00:49:38;103133.0;;;-1.45;77.02
67430;BME280;54298;52.076;5.264;2023-03-01T00:51:15;103139.00000000001;;;-1.37;76.58
67430;BME280;54298;52.076;5.264;2023-03-01T00:54:30;103133.0;;;-1.38;76.5
67430;BME280;54298;52.076;5.264;2023-03-01T00:56:09;103132.0;;;-1.54;77.12
67430;BME280;54298;52.076;5.264;2023-03-01T00:57:45;103129.0;;;-1.62;77.62
67430;BME280;54298;52.076;5.264;2023-03-01T01:00:58;103131.0;;;-1.69;78.11
67430;BME280;54298;52.076;5.264;2023-03-01T01:02:34;103127.0;;;-1.62;77.86
67430;BME280;54298;52.076;5.264;2023-03-01T01:04:12;103128.0;;;-1.65;77.66
67430;BME280;54298;52.076;5.264;2023-03-01T01:05:49;103126.0;;;-1.65;77.91
67430;BME280;54298;52.076;5.264;2023-03-01T01:09:03;103122.0;;;-1.63;77.89
67430;BME280;54298;52.076;5.264;2023-03-01T01:10:43;103122.0;;;-1.49;77.41
67430;BME280;54298;52.076;5.264;2023-03-01T01:12:20;103122.0;;;-1.58;77.62
67430;BME280;54298;52.076;5.264;2023-03-01T01:15:33;103118.0;;;-1.67;77.94
67430;BME280;54298;52.076;5.264;2023-03-01T01:17:10;103116.00000000001;;;-1.69;77.98
67430;BME280;54298;52.076;5.264;2023-03-01T01:18:46;103117.0;;;-1.59;77.78
67430;BME280;54298;52.076;5.264;2023-03-01T01:21:59;103114.00000000001;;;-1.75;78.61
67430;BME280;54298;52.076;5.264;2023-03-01T01:23:35;103109.99999999999;;;-1.73;78.75
67430;BME280;54298;52.076;5.264;2023-03-01T01:25:12;103108.0;;;-1.78;79.16
67430;BME280;54298;52.076;5.264;2023-03-01T01:26:48;103101.0;;;-1.77;79.11
67430;BME280;54298;52.076;5.264;2023-03-01T01:30:01;103094.0;;;-1.79;79.28
67430;BME280;54298;52.076;5.264;2023-03-01T01:31:39;103092.0;;;-1.77;79.19
67430;BME280;54298;52.076;5.264;2023-03-01T01:33:17;103095.0;;;-1.6;78.5
67430;BME280;54298;52.076;5.264;2023-03-01T01:36:30;103088.00000000001;;;-1.69;78.27
67430;BME280;54298;52.076;5.264;2023-03-01T01:38:09;103086.99999999999;;;-1.73;78.66
67430;BME280;54298;52.076;5.264;2023-03-01T01:39:45;103082.0;;;-1.71;78.49
67430;BME280;54298;52.076;5.264;2023-03-01T01:41:22;103083.0;;;-1.74;78.61
67430;BME280;54298;52.076;5.264;2023-03-01T01:44:35;103088.00000000001;;;-1.62;78.19
67430;BME280;54298;52.076;5.264;2023-03-01T01:46:17;103084.99999999999;;;-1.68;78.08
67430;BME280;54298;52.076;5.264;2023-03-01T01:48:00;103089.00000000001;;;-1.54;77.78
67430;BME280;54298;52.076;5.264;2023-03-01T01:51:24;103083.99999999999;;;-1.55;77.61
67430;BME280;54298;52.076;5.264;2023-03-01T01:53:01;103088.00000000001;;;-1.63;77.7
67430;BME280;54298;52.076;5.264;2023-03-01T01:54:42;103081.0;;;-1.69;78.0
67430;BME280;54298;52.076;5.264;2023-03-01T01:56:23;103076.0;;;-1.63;77.64
67430;BME280;54298;52.076;5.264;2023-03-01T01:59:47;103078.0;;;-1.61;77.47
67430;BME280;54298;52.076;5.264;2023-03-01T02:01:26;103077.0;;;-1.85;78.37
67430;BME280;54298;52.076;5.264;2023-03-01T02:03:04;103072.0;;;-1.91;78.7
67430;BME280;54298;52.076;5.264;2023-03-01T02:04:44;103074.0;;;-1.77;78.2
67430;BME280;54298;52.076;5.264;2023-03-01T02:08:06;103067.0;;;-1.82;78.09
67430;BME280;54298;52.076;5.264;2023-03-01T02:09:46;103067.0;;;-1.77;78.06
67430;BME280;54298;52.076;5.264;2023-03-01T02:11:25;103067.0;;;-1.89;78.27
67430;BME280;54298;52.076;5.264;2023-03-01T02:13:03;103061.99999999999;;;-2.01;78.75
67430;BME280;54298;52.076;5.264;2023-03-01T02:16:16;103066.00000000001;;;-1.98;78.72
67430;BME280;54298;52.076;5.264;2023-03-01T02:17:54;103069.0;;;-1.99;78.73
67430;BME280;54298;52.076;5.264;2023-03-01T02:19:41;103071.0;;;-1.91;78.41
67430;BME280;54298;52.076;5.264;2023-03-01T02:21:41;103069.0;;;-1.86;78.08
67430;BME280;54298;52.076;5.264;2023-03-01T02:23:25;103067.0;;;-1.83;77.97
67430;BME280;54298;52.076;5.264;2023-03-01T02:26:52;103063.00000000001;;;-1.94;78.19
67430;BME280;54298;52.076;5.264;2023-03-01T02:28:32;103064.00000000001;;;-2.0;78.44
67430;BME280;54298;52.076;5.264;2023-03-01T02:30:10;103067.0;;;-1.97;78.63
67430;BME280;54298;52.076;5.264;2023-03-01T02:31:47;103065.00000000001;;;-2.01;78.41
67430;BME280;54298;52.076;5.264;2023-03-01T02:35:02;103058.99999999999;;;-2.08;78.69
67430;BME280;54298;52.076;5.264;2023-03-01T02:36:40;103063.00000000001;;;-2.08;78.66
67430;BME280;54298;52.076;5.264;2023-03-01T02:38:18;103055.0;;;-2.19;78.94
67430;BME280;54298;52.076;5.264;2023-03-01T02:39:59;103054.0;;;-2.26;79.28
67430;BME280;54298;52.076;5.264;2023-03-01T02:43:19;103061.99999999999;;;-2.23;79.47
67430;BME280;54298;52.076;5.264;2023-03-01T02:44:58;103057.0;;;-2.36;80.31
67430;BME280;54298;52.076;5.264;2023-03-01T02:46:42;103046.0;;;-2.35;80.53
67430;BME280;54298;52.076;5.264;2023-03-01T02:48:18;103047.0;;;-2.37;80.61
67430;BME280;54298;52.076;5.264;2023-03-01T02:51:42;103048.0;;;-2.39;80.69
67430;BME280;54298;52.076;5.264;2023-03-01T02:53:28;103041.00000000001;;;-2.34;80.63
67430;BME280;54298;52.076;5.264;2023-03-01T02:55:11;103040.00000000001;;;-2.33;80.39
67430;BME280;54298;52.076;5.264;2023-03-01T02:56:50;103042.0;;;-2.25;80.2
67430;BME280;54298;52.076;5.264;2023-03-01T03:00:07;103042.0;;;-2.11;79.73
67430;BME280;54298;52.076;5.264;2023-03-01T03:01:44;103034.99999999999;;;-2.23;79.7
67430;BME280;54298;52.076;5.264;2023-03-01T03:03:21;103033.0;;;-2.2;79.77
67430;BME280;54298;52.076;5.264;2023-03-01T03:06:34;103030.0;;;-2.19;79.77
67430;BME280;54298;52.076;5.264;2023-03-01T03:08:10;103030.0;;;-2.2;79.58
67430;BME280;54298;52.076;5.264;2023-03-01T03:09:46;103023.0;;;-2.28;79.8
67430;BME280;54298;52.076;5.264;2023-03-01T03:11:22;103030.0;;;-2.37;80.16
67430;BME280;54298;52.076;5.264;2023-03-01T03:14:37;103032.0;;;-2.39;80.36
67430;BME280;54298;52.076;5.264;2023-03-01T03:16:14;103030.0;;;-2.35;80.24
67430;BME280;54298;52.076;5.264;2023-03-01T03:17:51;103033.0;;;-2.39;80.53
67430;BME280;54298;52.076;5.264;2023-03-01T03:21:07;103029.0;;;-2.4;80.53
67430;BME280;54298;52.076;5.264;2023-03-01T03:22:43;103027.0;;;-2.37;80.47
67430;BME280;54298;52.076;5.264;2023-03-01T03:24:19;103025.0;;;-2.36;80.37
67430;BME280;54298;52.076;5.264;2023-03-01T03:25:55;103021.0;;;-2.42;80.5
67430;BME280;54298;52.076;5.264;2023-03-01T03:29:08;103021.0;;;-2.51;80.91
67430;BME280;54298;52.076;5.264;2023-03-01T03:30:44;103009.99999999999;;;-2.61;81.37
67430;BME280;54298;52.076;5.264;2023-03-01T03:32:20;103008.0;;;-2.55;81.41
67430;BME280;54298;52.076;5.264;2023-03-01T03:35:34;103006.0;;;-2.6;81.75
67430;BME280;54298;52.076;5.264;2023-03-01T03:37:15;103011.99999999999;;;-2.6;81.86
67430;BME280;54298;52.076;5.264;2023-03-01T03:38:52;103016.00000000001;;;-2.54;81.58
67430;BME280;54298;52.076;5.264;2023-03-01T03:42:08;103014.00000000001;;;-2.54;81.45
67430;BME280;54298;52.076;5.264;2023-03-01T03:43:44;103015.00000000001;;;-2.55;81.47
67430;BME280;54298;52.076;5.264;2023-03-01T03:45:20;103011.99999999999;;;-2.46;81.22
67430;BME280;54298;52.076;5.264;2023-03-01T03:46:56;103015.00000000001;;;-2.37;80.75
67430;BME280;54298;52.076;5.264;2023-03-01T03:50:10;103019.0;;;-2.39;80.83
67430;BME280;54298;52.076;5.264;2023-03-01T03:51:48;103014.00000000001;;;-2.18;80.41
67430;BME280;54298;52.076;5.264;2023-03-01T03:53:26;103008.0;;;-2.26;80.22
67430;BME280;54298;52.076;5.264;2023-03-01T03:56:40;103009.99999999999;;;-2.1;79.94
67430;BME280;54298;52.076;5.264;2023-03-01T03:58:17;103008.0;;;-2.15;79.61
67430;BME280;54298;52.076;5.264;2023-03-01T03:59:54;103005.0;;;-2.15;79.34
67430;BME280;54298;52.076;5.264;2023-03-01T04:01:31;103005.0;;;-2.15;79.03
67430;BME280;54298;52.076;5.264;2023-03-01T04:04:45;103003.0;;;-2.28;79.31
67430;BME280;54298;52.076;5.264;2023-03-01T04:06:21;103006.0;;;-2.45;79.58
67430;BME280;54298;52.076;5.264;2023-03-01T04:07:58;103006.0;;;-2.41;79.45
67430;BME280;54298;52.076;5.264;2023-03-01T04:11:12;103008.0;;;-2.35;79.11
67430;BME280;54298;52.076;5.264;2023-03-01T04:12:48;103016.00000000001;;;-2.14;78.58
67430;BME280;54298;52.076;5.264;2023-03-01T04:14:25;103013.00000000001;;;-2.12;78.44
67430;BME280;54298;52.076;5.264;2023-03-01T04:17:37;103008.99999999999;;;-2.22;78.19
67430;BME280;54298;52.076;5.264;2023-03-01T04:19:13;103015.00000000001;;;-2.44;79.08
67430;BME280;54298;52.076;5.264;2023-03-01T04:20:49;103008.99999999999;;;-2.46;79.27
67430;BME280;54298;52.076;5.264;2023-03-01T04:22:26;103006.0;;;-2.56;79.58
67430;BME280;54298;52.076;5.264;2023-03-01T04:25:42;103011.99999999999;;;-2.6;79.66
67430;BME280;54298;52.076;5.264;2023-03-01T04:27:17;103007.0;;;-2.71;80.0
67430;BME280;54298;52.076;5.264;2023-03-01T04:28:54;103011.99999999999;;;-2.6;79.88
67430;BME280;54298;52.076;5.264;2023-03-01T04:32:06;103005.0;;;-2.63;79.74
67430;BME280;54298;52.076;5.264;2023-03-01T04:33:43;103015.00000000001;;;-2.77;79.77
67430;BME280;54298;52.076;5.264;2023-03-01T04:35:20;103022.0;;;-2.9;80.44
67430;BME280;54298;52.076;5.264;2023-03-01T04:38:33;103022.0;;;-2.79;79.73
67430;BME280;54298;52.076;5.264;2023-03-01T04:40:10;103018.0;;;-2.73;80.02
67430;BME280;54298;52.076;5.264;2023-03-01T04:41:46;103018.0;;;-2.49;78.94
67430;BME280;54298;52.076;5.264;2023-03-01T04:43:23;103009.99999999999;;;-2.49;78.61
67430;BME280;54298;52.076;5.264;2023-03-01T04:46:36;103003.0;;;-2.67;78.95
67430;BME280;54298;52.076;5.264;2023-03-01T04:48:12;103002.0;;;-2.75;79.33
67430;BME280;54298;52.076;5.264;2023-03-01T04:49:49;103004.0;;;-2.81;79.66
67430;BME280;54298;52.076;5.264;2023-03-01T04:53:01;103003.0;;;-2.76;79.56
67430;BME280;54298;52.076;5.264;2023-03-01T04:54:38;102995.0;;;-2.72;79.27
67430;BME280;54298;52.076;5.264;2023-03-01T04:56:15;102993.0;;;-2.61;78.95
67430;BME280;54298;52.076;5.264;2023-03-01T04:59:29;102989.00000000001;;;-2.54;78.73
67430;BME280;54298;52.076;5.264;2023-03-01T05:01:08;102984.99999999999;;;-2.59;78.56
67430;BME280;54298;52.076;5.264;2023-03-01T05:02:47;102991.00000000001;;;-2.71;78.86
67430;BME280;54298;52.076;5.264;2023-03-01T05:04:24;102979.0;;;-2.58;78.36
67430;BME280;54298;52.076;5.264;2023-03-01T05:07:36;102973.0;;;-2.74;78.87
67430;BME280;54298;52.076;5.264;2023-03-01T05:09:13;102973.0;;;-2.9;79.34
67430;BME280;54298;52.076;5.264;2023-03-01T05:10:50;102979.0;;;-2.91;79.42
67430;BME280;54298;52.076;5.264;2023-03-01T05:15:42;102967.0;;;-3.1;80.16
67430;BME280;54298;52.076;5.264;2023-03-01T05:17:18;102968.0;;;-3.06;80.22
67430;BME280;54298;52.076;5.264;2023-03-01T05:18:54;102974.0;;;-3.14;80.36
67430;BME280;54298;52.076;5.264;2023-03-01T05:22:07;102967.0;;;-3.12;80.33
67430;BME280;54298;52.076;5.264;2023-03-01T05:23:43;102963.00000000001;;;-3.16;80.38
67430;BME280;54298;52.076;5.264;2023-03-01T05:25:20;102951.0;;;-3.1;80.3
67430;BME280;54298;52.076;5.264;2023-03-01T05:28:35;102944.0;;;-3.02;80.17
67430;BME280;54298;52.076;5.264;2023-03-01T05:30:12;102950.0;;;-3.15;80.48
67430;BME280;54298;52.076;5.264;2023-03-01T05:31:48;102944.0;;;-3.11;80.36
67430;BME280;54298;52.076;5.264;2023-03-01T05:35:03;102940.00000000001;;;-3.15;80.45
67430;BME280;54298;52.076;5.264;2023-03-01T05:36:40;102946.0;;;-3.26;80.8
67430;BME280;54298;52.076;5.264;2023-03-01T05:38:16;102942.0;;;-3.25;80.83
67430;BME280;54298;52.076;5.264;2023-03-01T05:39:52;102936.99999999999;;;-3.16;80.52
67430;BME280;54298;52.076;5.264;2023-03-01T05:43:05;102929.0;;;-3.01;79.89
67430;BME280;54298;52.076;5.264;2023-03-01T05:44:41;102926.0;;;-3.05;79.62
67430;BME280;54298;52.076;5.264;2023-03-01T05:46:18;102924.0;;;-3.08;79.8
67430;BME280;54298;52.076;5.264;2023-03-01T05:49:31;102923.0;;;-3.06;79.7
67430;BME280;54298;52.076;5.264;2023-03-01T05:51:07;102922.0;;;-3.06;79.08
67430;BME280;54298;52.076;5.264;2023-03-01T05:52:44;102922.0;;;-2.97;79.02
67430;BME280;54298;52.076;5.264;2023-03-01T05:55:59;102921.0;;;-2.93;78.74
67430;BME280;54298;52.076;5.264;2023-03-01T05:57:35;102920.0;;;-2.93;78.69
67430;BME280;54298;52.076;5.264;2023-03-01T05:59:11;102920.0;;;-2.9;78.41
67430;BME280;54298;52.076;5.264;2023-03-01T06:00:48;102921.0;;;-2.97;78.37
67430;BME280;54298;52.076;5.264;2023-03-01T06:04:00;102920.0;;;-3.06;78.62
67430;BME280;54298;52.076;5.264;2023-03-01T06:05:38;102914.00000000001;;;-3.17;79.05
67430;BME280;54298;52.076;5.264;2023-03-01T06:07:15;102917.0;;;-3.17;79.12
67430;BME280;54298;52.076;5.264;2023-03-01T06:10:29;102928.0;;;-3.2;79.28
67430;BME280;54298;52.076;5.264;2023-03-01T06:12:05;102923.0;;;-3.23;79.3
67430;BME280;54298;52.076;5.264;2023-03-01T06:13:43;102922.0;;;-3.3;79.48
67430;BME280;54298;52.076;5.264;2023-03-01T06:16:57;102923.0;;;-3.4;79.86
67430;BME280;54298;52.076;5.264;2023-03-01T06:18:34;102925.0;;;-3.48;80.2
67430;BME280;54298;52.076;5.264;2023-03-01T06:20:13;102928.0;;;-3.38;80.05
67430;BME280;54298;52.076;5.264;2023-03-01T06:25:03;102926.0;;;-3.23;79.24
67430;BME280;54298;52.076;5.264;2023-03-01T06:26:40;102925.0;;;-3.2;78.91
67430;BME280;54298;52.076;5.264;2023-03-01T06:28:16;102926.0;;;-3.2;78.95
67430;BME280;54298;52.076;5.264;2023-03-01T06:31:29;102931.0;;;-3.06;78.3
67430;BME280;54298;52.076;5.264;2023-03-01T06:33:05;102926.0;;;-3.21;78.55
67430;BME280;54298;52.076;5.264;2023-03-01T06:34:41;102929.0;;;-3.29;78.81
67430;BME280;54298;52.076;5.264;2023-03-01T06:36:17;102931.0;;;-3.36;79.11
67430;BME280;54298;52.076;5.264;2023-03-01T06:39:29;102930.0;;;-3.38;79.33
67430;BME280;54298;52.076;5.264;2023-03-01T06:41:07;102932.0;;;-3.48;79.74
67430;BME280;54298;52.076;5.264;2023-03-01T06:42:47;102933.0;;;-3.54;80.3
67430;BME280;54298;52.076;5.264;2023-03-01T06:46:04;102926.0;;;-3.61;80.83
67430;BME280;54298;52.076;5.264;2023-03-01T06:47:40;102933.99999999999;;;-3.52;80.66
67430;BME280;54298;52.076;5.264;2023-03-01T06:49:16;102930.0;;;-3.49;80.31
67430;BME280;54298;52.076;5.264;2023-03-01T06:52:30;102934.99999999999;;;-3.45;80.25
67430;BME280;54298;52.076;5.264;2023-03-01T06:54:07;102934.99999999999;;;-3.46;80.41
67430;BME280;54298;52.076;5.264;2023-03-01T06:55:43;102933.99999999999;;;-3.44;80.45
67430;BME280;54298;52.076;5.264;2023-03-01T06:57:19;102932.0;;;-3.41;80.41
67430;BME280;54298;52.076;5.264;2023-03-01T07:00:32;102930.0;;;-3.34;80.38
67430;BME280;54298;52.076;5.264;2023-03-01T07:02:10;102933.0;;;-3.35;80.55
67430;BME280;54298;52.076;5.264;2023-03-01T07:03:47;102931.0;;;-3.27;80.41
67430;BME280;54298;52.076;5.264;2023-03-01T07:06:59;102921.0;;;-3.26;80.52
67430;BME280;54298;52.076;5.264;2023-03-01T07:08:35;102925.0;;;-3.19;80.34
67430;BME280;54298;52.076;5.264;2023-03-01T07:10:12;102930.0;;;-3.29;80.62
67430;BME280;54298;52.076;5.264;2023-03-01T07:13:26;102926.0;;;-3.31;80.8
67430;BME280;54298;52.076;5.264;2023-03-01T07:15:02;102921.0;;;-3.27;80.74
67430;BME280;54298;52.076;5.264;2023-03-01T07:16:40;102922.0;;;-3.23;80.69
67430;BME280;54298;52.076;5.264;2023-03-01T07:18:16;102923.0;;;-3.23;80.8
67430;BME280;54298;52.076;5.264;2023-03-01T07:21:29;102924.0;;;-3.08;80.49
67430;BME280;54298;52.076;5.264;2023-03-01T07:23:06;102933.99999999999;;;-3.01;80.24
67430;BME280;54298;52.076;5.264;2023-03-01T07:24:43;102931.0;;;-2.98;80.33
67430;BME280;54298;52.076;5.264;2023-03-01T07:27:55;102934.99999999999;;;-2.92;80.2
67430;BME280;54298;52.076;5.264;2023-03-01T07:29:31;102938.00000000001;;;-2.94;80.5
67430;BME280;54298;52.076;5.264;2023-03-01T07:31:07;102942.0;;;-2.86;80.56
67430;BME280;54298;52.076;5.264;2023-03-01T07:34:20;102939.00000000001;;;-2.84;80.87
67430;BME280;54298;52.076;5.264;2023-03-01T07:35:57;102938.00000000001;;;-2.81;81.11
67430;BME280;54298;52.076;5.264;2023-03-01T07:37:33;102942.0;;;-2.74;81.3
67430;BME280;54298;52.076;5.264;2023-03-01T07:39:09;102940.00000000001;;;-2.65;81.34
67430;BME280;54298;52.076;5.264;2023-03-01T07:42:23;102944.0;;;-2.59;81.53
67430;BME280;54298;52.076;5.264;2023-03-01T07:43:59;102941.00000000001;;;-2.62;81.91
67430;BME280;54298;52.076;5.264;2023-03-01T07:45:35;102942.0;;;-2.57;82.04
67430;BME280;54298;52.076;5.264;2023-03-01T07:48:47;102949.0;;;-2.52;82.02
67430;BME280;54298;52.076;5.264;2023-03-01T07:50:23;102948.0;;;-2.4;82.03
67430;BME280;54298;52.076;5.264;2023-03-01T07:51:59;102952.0;;;-2.31;81.98
67430;BME280;54298;52.076;5.264;2023-03-01T07:55:13;102947.0;;;-2.2;81.98
67430;BME280;54298;52.076;5.264;2023-03-01T07:56:50;102949.0;;;-2.01;81.49
67430;BME280;54298;52.076;5.264;2023-03-01T07:58:26;102949.0;;;-1.95;81.38
67430;BME280;54298;52.076;5.264;2023-03-01T08:00:03;102945.0;;;-1.83;81.23
67430;BME280;54298;52.076;5.264;2023-03-01T08:03:17;102947.0;;;-1.79;81.45
67430;BME280;54298;52.076;5.264;2023-03-01T08:04:53;102942.0;;;-1.69;81.42
67430;BME280;54298;52.076;5.264;2023-03-01T08:06:29;102944.0;;;-1.61;81.42
67430;BME280;54298;52.076;5.264;2023-03-01T08:09:42;102950.0;;;-1.56;81.64
67430;BME280;54298;52.076;5.264;2023-03-01T08:11:18;102945.0;;;-1.44;81.47
67430;BME280;54298;52.076;5.264;2023-03-01T08:12:54;102948.0;;;-1.19;81.16
67430;BME280;54298;52.076;5.264;2023-03-01T08:16:08;102940.00000000001;;;-1.02;80.8
67430;BME280;54298;52.076;5.264;2023-03-01T08:17:45;102940.00000000001;;;-0.84;80.62
67430;BME280;54298;52.076;5.264;2023-03-01T08:19:26;102940.00000000001;;;-0.74;80.28
67430;BME280;54298;52.076;5.264;2023-03-01T08:21:03;102943.0;;;-0.63;80.2
67430;BME280;54298;52.076;5.264;2023-03-01T08:24:16;102942.0;;;-0.51;79.97
67430;BME280;54298;52.076;5.264;2023-03-01T08:25:52;102939.00000000001;;;-0.37;79.73
67430;BME280;54298;52.076;5.264;2023-03-01T08:27:28;102942.0;;;-0.11;79.41
67430;BME280;54298;52.076;5.264;2023-03-01T08:30:41;102933.0;;;-0.05;78.69
67430;BME280;54298;52.076;5.264;2023-03-01T08:32:17;102934.99999999999;;;0.21;78.47
67430;BME280;54298;52.076;5.264;2023-03-01T08:33:55;102932.0;;;0.31;78.02
67430;BME280;54298;52.076;5.264;2023-03-01T08:35:33;102931.0;;;0.48;77.52
67430;BME280;54298;52.076;5.264;2023-03-01T08:38:45;102938.00000000001;;;0.6;76.86
67430;BME280;54298;52.076;5.264;2023-03-01T08:40:22;102932.0;;;0.66;76.52
67430;BME280;54298;52.076;5.264;2023-03-01T08:41:58;102933.99999999999;;;0.98;76.03
67430;BME280;54298;52.076;5.264;2023-03-01T08:45:11;102928.0;;;1.1;75.45
67430;BME280;54298;52.076;5.264;2023-03-01T08:48:24;102923.0;;;1.38;74.08
67430;BME280;54298;52.076;5.264;2023-03-01T08:51:38;102919.0;;;1.48;73.12
67430;BME280;54298;52.076;5.264;2023-03-01T08:53:15;102916.00000000001;;;1.65;72.53
67430;BME280;54298;52.076;5.264;2023-03-01T08:54:51;102915.00000000001;;;1.82;71.48
67430;BME280;54298;52.076;5.264;2023-03-01T08:56:27;102914.00000000001;;;1.89;70.41
67430;BME280;54298;52.076;5.264;2023-03-01T08:59:39;102906.0;;;2.12;70.12
67430;BME280;54298;52.076;5.264;2023-03-01T09:01:17;102907.0;;;2.14;69.69
67430;BME280;54298;52.076;5.264;2023-03-01T09:02:55;102902.0;;;2.21;67.56
67430;BME280;54298;52.076;5.264;2023-03-01T09:06:07;102903.0;;;2.31;66.44
67430;BME280;54298;52.076;5.264;2023-03-01T09:07:44;102902.0;;;2.56;66.5
67430;BME280;54298;52.076;5.264;2023-03-01T09:09:20;102899.0;;;2.69;65.35
67430;BME280;54298;52.076;5.264;2023-03-01T09:12:33;102897.0;;;2.87;65.16
67430;BME280;54298;52.076;5.264;2023-03-01T09:14:09;102897.0;;;3.05;63.9
67430;BME280;54298;52.076;5.264;2023-03-01T09:15:45;102890.00000000001;;;3.17;63.56
67430;BME280;54298;52.076;5.264;2023-03-01T09:17:21;102886.99999999999;;;3.26;62.45
67430;BME280;54298;52.076;5.264;2023-03-01T09:20:33;102888.00000000001;;;3.38;61.85
67430;BME280;54298;52.076;5.264;2023-03-01T09:22:09;102886.99999999999;;;3.5;61.68
67430;BME280;54298;52.076;5.264;2023-03-01T09:23:47;102881.0;;;3.58;61.22
67430;BME280;54298;52.076;5.264;2023-03-01T09:27:00;102877.0;;;3.71;59.67
67430;BME280;54298;52.076;5.264;2023-03-01T09:28:37;102870.0;;;3.81;59.21
67430;BME280;54298;52.076;5.264;2023-03-01T09:30:14;102869.0;;;3.89;58.02
67430;BME280;54298;52.076;5.264;2023-03-01T09:33:26;102870.0;;;3.89;57.15
67430;BME280;54298;52.076;5.264;2023-03-01T09:35:03;102861.99999999999;;;4.07;56.26
67430;BME280;54298;52.076;5.264;2023-03-01T09:36:40;102857.0;;;3.92;55.08
67430;BME280;54298;52.076;5.264;2023-03-01T09:38:17;102858.99999999999;;;4.13;55.35
67430;BME280;54298;52.076;5.264;2023-03-01T09:41:47;102853.0;;;4.07;54.34
67430;BME280;54298;52.076;5.264;2023-03-01T09:43:39;102851.0;;;4.17;53.75
67430;BME280;54298;52.076;5.264;2023-03-01T09:45:28;102850.0;;;4.37;54.21
67430;BME280;54298;52.076;5.264;2023-03-01T09:47:12;102851.0;;;4.36;52.92
67430;BME280;54298;52.076;5.264;2023-03-01T09:48:56;102853.0;;;4.47;53.3
67430;BME280;54298;52.076;5.264;2023-03-01T09:52:23;102846.0;;;4.45;53.13
67430;BME280;54298;52.076;5.264;2023-03-01T09:54:05;102849.0;;;4.7;53.27
67430;BME280;54298;52.076;5.264;2023-03-01T09:55:44;102847.0;;;4.59;52.24
67430;BME280;54298;52.076;5.264;2023-03-01T09:57:28;102849.0;;;4.82;52.56
67430;BME280;54298;52.076;5.264;2023-03-01T10:01:03;102853.0;;;4.82;51.68
67430;BME280;54298;52.076;5.264;2023-03-01T10:02:49;102864.00000000001;;;4.82;51.91
67430;BME280;54298;52.076;5.264;2023-03-01T10:04:35;102856.0;;;4.95;51.58
67430;BME280;54298;52.076;5.264;2023-03-01T10:06:21;102859.99999999999;;;5.05;52.11
67430;BME280;54298;52.076;5.264;2023-03-01T10:08:06;102864.00000000001;;;5.04;51.58
67430;BME280;54298;52.076;5.264;2023-03-01T10:10:05;102863.00000000001;;;5.14;51.47
67430;BME280;54298;52.076;5.264;2023-03-01T10:13:24;102863.00000000001;;;5.16;51.41
67430;BME280;54298;52.076;5.264;2023-03-01T10:15:08;102858.99999999999;;;5.21;50.26
67430;BME280;54298;52.076;5.264;2023-03-01T10:16:51;102858.99999999999;;;5.32;49.95
67430;BME280;54298;52.076;5.264;2023-03-01T10:18:30;102864.00000000001;;;5.31;50.3
67430;BME280;54298;52.076;5.264;2023-03-01T10:20:17;102851.0;;;5.34;49.9
67430;BME280;54298;52.076;5.264;2023-03-01T10:23:46;102848.0;;;5.56;50.49
67430;BME280;54298;52.076;5.264;2023-03-01T10:25:40;102842.0;;;5.62;49.87
67430;BME280;54298;52.076;5.264;2023-03-01T10:27:23;102842.0;;;5.55;50.15
67430;BME280;54298;52.076;5.264;2023-03-01T10:29:03;102840.00000000001;;;5.4;49.71
67430;BME280;54298;52.076;5.264;2023-03-01T10:30:40;102838.00000000001;;;5.51;49.54
67430;BME280;54298;52.076;5.264;2023-03-01T10:33:55;102841.00000000001;;;5.26;49.08
67430;BME280;54298;52.076;5.264;2023-03-01T10:35:33;102833.99999999999;;;5.51;49.65
67430;BME280;54298;52.076;5.264;2023-03-01T10:37:12;102838.00000000001;;;5.55;49.53
67430;BME280;54298;52.076;5.264;2023-03-01T10:40:28;102836.99999999999;;;5.65;48.8
67430;BME280;54298;52.076;5.264;2023-03-01T10:42:09;102839.00000000001;;;5.61;48.87
67430;BME280;54298;52.076;5.264;2023-03-01T10:43:55;102834.99999999999;;;5.63;47.73
67430;BME280;54298;52.076;5.264;2023-03-01T10:45:35;102824.0;;;5.54;47.68
67430;BME280;54298;52.076;5.264;2023-03-01T10:49:25;102825.0;;;5.45;46.73